»·PEaware :: N313KP KOTH-KMFR

N313KP :: KOTH-KMFR

FLIGHT INFORMATION

Flight Status: Arrived
Operator: Privately registered:
United States
More flights under this callsign
Pilot: Erik A. (17503)
Aircraft: BEECH AIRCRAFT BONANZA
(BE35)
More flights by this aircraft type
Origin: KOTH North Bend Mun
United States
Destination: KMFR Rogue Valley Intl-Medford
United States
More flights between these airports :: More routes between these airports
Route: +OTH6 DEROY V287 OED V122 WISEP
File this flight plan on PilotEdge
Remarks:
Altitude:
(Current/Filed)
10,000ft
Speed:
(Current/Filed)
130kts
Departed: 14-Jan-20 04:08 PM
Arrived: 14-Jan-20 05:19 PM
Distance/Time
Traveled:
87nm/1:11
Distance/Time
To Go:
Arrived

Flight Plot

Page will automatically refresh every two minutes.


Map Options




Map Legend


Flown Route
Filed Route
Departure Airport
Arrival Airport
Navaid (VOR, NDB)
Fix

Horizontal Profiles

Position Reports

Time Latitude Longitude Heading Altitude Ground
Speed
14-Jan-20 15:06 43.417453 -124.247303 237 11ft 0kts
14-Jan-20 15:07 43.417453 -124.247303 237 11ft 0kts
14-Jan-20 15:08 43.417453 -124.247303 237 11ft 0kts
14-Jan-20 15:09 43.417453 -124.247303 237 11ft 0kts
14-Jan-20 15:10 43.417453 -124.247303 237 11ft 0kts
14-Jan-20 15:11 43.417453 -124.247303 237 11ft 0kts
14-Jan-20 15:12 43.417453 -124.247303 237 11ft 0kts
14-Jan-20 15:13 43.417453 -124.247303 237 11ft 0kts
14-Jan-20 15:14 43.417453 -124.247303 237 11ft 0kts
14-Jan-20 15:15 43.417453 -124.247303 237 11ft 0kts
14-Jan-20 15:16 43.417453 -124.247303 237 11ft 0kts
14-Jan-20 15:17 43.417452 -124.247304 237 11ft 0kts
14-Jan-20 15:18 43.417451 -124.247306 237 11ft 0kts
14-Jan-20 15:19 43.417451 -124.247308 237 11ft 0kts
14-Jan-20 15:20 43.417450 -124.247309 237 11ft 0kts
14-Jan-20 15:21 43.417449 -124.247311 237 11ft 0kts
14-Jan-20 15:22 43.417448 -124.247313 237 11ft 0kts
14-Jan-20 15:23 43.417447 -124.247315 237 11ft 0kts
14-Jan-20 15:24 43.417446 -124.247317 237 11ft 0kts
14-Jan-20 15:25 43.417445 -124.247319 237 11ft 0kts
14-Jan-20 15:26 43.417445 -124.247321 237 11ft 0kts
14-Jan-20 15:27 43.417444 -124.247323 237 11ft 0kts
14-Jan-20 15:28 43.417443 -124.247325 237 11ft 0kts
14-Jan-20 15:29 43.417442 -124.247326 237 11ft 0kts
14-Jan-20 15:30 43.417441 -124.247328 237 11ft 0kts
14-Jan-20 15:31 43.417440 -124.247330 237 11ft 0kts
14-Jan-20 15:32 43.417439 -124.247332 237 11ft 0kts
14-Jan-20 15:33 43.417438 -124.247334 237 11ft 0kts
14-Jan-20 15:34 43.417438 -124.247336 237 11ft 0kts
14-Jan-20 15:35 43.417437 -124.247338 237 11ft 0kts
14-Jan-20 15:36 43.417436 -124.247340 237 11ft 0kts
14-Jan-20 15:37 43.417435 -124.247342 237 11ft 0kts
14-Jan-20 15:38 43.417434 -124.247343 237 11ft 0kts
14-Jan-20 15:39 43.417433 -124.247345 237 11ft 0kts
14-Jan-20 15:40 43.417432 -124.247347 237 11ft 0kts
14-Jan-20 15:41 43.417431 -124.247349 237 11ft 0kts
14-Jan-20 15:42 43.417431 -124.247351 237 11ft 0kts
14-Jan-20 15:43 43.417430 -124.247353 237 11ft 0kts
14-Jan-20 15:44 43.417429 -124.247355 237 11ft 0kts
14-Jan-20 15:45 43.417428 -124.247357 237 11ft 0kts
14-Jan-20 15:46 43.417427 -124.247359 237 11ft 0kts
14-Jan-20 15:47 43.417426 -124.247361 237 11ft 0kts
14-Jan-20 15:48 43.417530 -124.247129 45 11ft 2kts
14-Jan-20 15:49 43.417544 -124.247108 47 11ft 0kts
14-Jan-20 15:50 43.417545 -124.247106 47 11ft 0kts
14-Jan-20 15:51 43.417547 -124.247104 47 11ft 0kts
14-Jan-20 15:52 43.417548 -124.247102 47 11ft 0kts
14-Jan-20 15:53 43.417549 -124.247101 47 11ft 0kts
14-Jan-20 15:54 43.417617 -124.246972 58 11ft 2kts
14-Jan-20 15:55 43.418592 -124.246706 327 11ft 6kts
14-Jan-20 15:56 43.419287 -124.246696 62 11ft 0kts
14-Jan-20 15:57 43.419287 -124.246695 62 11ft 0kts
14-Jan-20 15:58 43.419288 -124.246693 62 11ft 0kts
14-Jan-20 15:59 43.419291 -124.246686 62 11ft 0kts
14-Jan-20 16:00 43.419293 -124.246679 62 11ft 0kts
14-Jan-20 16:01 43.419296 -124.246670 62 11ft 0kts
14-Jan-20 16:02 43.419298 -124.246667 62 11ft 0kts
14-Jan-20 16:03 43.419299 -124.246664 62 11ft 0kts
14-Jan-20 16:04 43.419300 -124.246662 62 11ft 0kts
14-Jan-20 16:05 43.419301 -124.246659 62 11ft 0kts
14-Jan-20 16:06 43.419337 -124.245864 147 11ft 8kts
14-Jan-20 16:07 43.402736 -124.235775 175 464ft 79kts
14-Jan-20 16:08 43.399133 -124.259896 327 1302ft 90kts
14-Jan-20 16:09 43.419371 -124.255768 67 2253ft 87kts
14-Jan-20 16:10 43.415436 -124.219956 82 2996ft 93kts
14-Jan-20 16:11 43.411298 -124.183073 117 3712ft 105kts
14-Jan-20 16:12 43.389973 -124.151743 130 4413ft 116kts
14-Jan-20 16:13 43.370768 -124.115994 125 5204ft 119kts
14-Jan-20 16:14 43.349089 -124.080730 133 6283ft 121kts
14-Jan-20 16:15 43.325625 -124.046774 140 7014ft 122kts
14-Jan-20 16:16 43.300706 -124.014137 135 7703ft 125kts
14-Jan-20 16:17 43.277334 -123.979102 147 8388ft 124kts
14-Jan-20 16:18 43.251125 -123.948583 137 9014ft 128kts
14-Jan-20 16:19 43.221281 -123.910589 146 9065ft 154kts
14-Jan-20 16:20 43.189625 -123.869602 138 9138ft 158kts
14-Jan-20 16:21 43.159203 -123.825928 142 9165ft 157kts
14-Jan-20 16:22 43.129668 -123.781357 140 9186ft 158kts
14-Jan-20 16:23 43.098138 -123.739166 137 9108ft 160kts
14-Jan-20 16:24 43.068013 -123.695121 142 9045ft 157kts
14-Jan-20 16:25 43.034673 -123.657324 143 8984ft 157kts
14-Jan-20 16:26 43.003482 -123.616024 144 8975ft 152kts
14-Jan-20 16:27 42.970816 -123.579783 145 9010ft 149kts
14-Jan-20 16:28 42.941488 -123.540450 142 9141ft 147kts
14-Jan-20 16:29 42.915009 -123.501141 136 9496ft 137kts
14-Jan-20 16:30 42.895595 -123.459213 126 9977ft 132kts
14-Jan-20 16:31 42.879032 -123.417808 126 10581ft 126kts
14-Jan-20 16:32 42.859501 -123.378619 137 11180ft 122kts
14-Jan-20 16:33 42.835907 -123.334451 140 11184ft 169kts
14-Jan-20 16:34 42.800840 -123.286062 143 10884ft 182kts
14-Jan-20 16:35 42.764358 -123.239834 150 10766ft 175kts
14-Jan-20 16:36 42.726821 -123.200600 150 10842ft 166kts
14-Jan-20 16:38 42.690968 -123.164384 156 10989ft 162kts
14-Jan-20 16:39 42.655234 -123.124523 149 11018ft 168kts
14-Jan-20 16:40 42.620966 -123.080661 140 11069ft 171kts
14-Jan-20 16:41 42.588851 -123.034008 152 11156ft 165kts
14-Jan-20 16:42 42.552190 -122.996162 153 11104ft 171kts
14-Jan-20 16:43 42.514875 -122.954311 148 10940ft 174kts
14-Jan-20 16:44 42.479006 -122.912058 165 10985ft 155kts
14-Jan-20 16:45 42.461869 -122.943216 258 10859ft 114kts
14-Jan-20 16:46 42.444106 -122.978742 235 10969ft 120kts
14-Jan-20 16:47 42.422235 -123.014661 247 10678ft 130kts
14-Jan-20 16:48 42.407059 -123.058715 240 10296ft 131kts
14-Jan-20 16:49 42.383521 -123.095822 237 10065ft 129kts
14-Jan-20 16:50 42.364100 -123.134686 240 9989ft 119kts
14-Jan-20 16:51 42.344393 -123.169891 235 10016ft 118kts
14-Jan-20 16:52 42.319932 -123.200345 228 9966ft 121kts
14-Jan-20 16:53 42.296534 -123.231556 243 9977ft 115kts
14-Jan-20 16:54 42.284427 -123.269223 256 10119ft 105kts
14-Jan-20 16:55 42.268462 -123.304116 236 10154ft 111kts
14-Jan-20 16:55 42.252626 -123.331616 242 10219ft 108kts
14-Jan-20 16:57 42.217509 -123.318583 136 10153ft 158kts
14-Jan-20 16:58 42.196581 -123.262930 128 9895ft 166kts
14-Jan-20 16:58 42.172820 -123.223084 149 9678ft 161kts
14-Jan-20 17:00 42.132841 -123.180070 133 9404ft 166kts
14-Jan-20 17:00 42.113542 -123.135334 123 9266ft 162kts
14-Jan-20 17:01 42.092326 -123.083459 124 9220ft 156kts
14-Jan-20 17:03 42.081517 -123.017430 102 9340ft 148kts
14-Jan-20 17:03 42.077404 -122.970710 94 9389ft 152kts
14-Jan-20 17:04 42.081259 -122.913133 88 9427ft 152kts
14-Jan-20 17:05 42.085767 -122.854305 84 9231ft 158kts
14-Jan-20 17:06 42.091298 -122.797105 84 9317ft 148kts
14-Jan-20 17:07 42.120230 -122.769786 0 9328ft 138kts
14-Jan-20 17:08 42.159043 -122.759938 350 9256ft 137kts
14-Jan-20 17:09 42.194925 -122.769032 331 8522ft 132kts
14-Jan-20 17:10 42.224482 -122.787847 323 7328ft 107kts
14-Jan-20 17:11 42.251554 -122.804165 323 6289ft 100kts
14-Jan-20 17:12 42.278012 -122.819777 331 5290ft 105kts
14-Jan-20 17:13 42.302866 -122.835797 323 4671ft 96kts
14-Jan-20 17:14 42.328491 -122.847406 331 3819ft 98kts
14-Jan-20 17:15 42.354277 -122.859325 340 2658ft 95kts
14-Jan-20 17:16 42.380066 -122.870355 344 1789ft 102kts
14-Jan-20 17:17 42.383914 -122.877790 162 1373ft 81kts
14-Jan-20 17:18 42.376108 -122.874810 256 1338ft 5kts
14-Jan-20 17:19 42.375993 -122.875131 219 1338ft 4kts
14-Jan-20 17:20 42.373384 -122.875056 177 1338ft 11kts
14-Jan-20 17:21 42.370728 -122.875285 200 1338ft 6kts
14-Jan-20 17:22 42.370627 -122.875345 201 1338ft 0kts
14-Jan-20 17:23 42.370627 -122.875345 201 1338ft 0kts

Navigation Log

Ident Type
Flight plan parsing failed, navigation log unavailable